Time;durP1;ratioP1;P1;durP2;ratioP2;P2;SDS_P1;SDS_P2;PMS_P1;PMS_P2;Temp;Humidity;BMP_temperature;BMP_pressure;BME280_temperature;BME280_humidity;BME280_pressure;Samples;Min_cycle;Max_cycle;Signal;HPM_P1;HPM_P2
2020/12/10 00:02:15;;;;;;;25.88;17.05;;;;;;;1.73;80.80;95881.31;5033980;28;20496;-78
2020/12/10 00:04:41;;;;;;;31.92;17.52;;;;;;;1.72;80.89;95875.38;5033786;28;20050;-77
2020/12/10 00:07:08;;;;;;;27.27;16.92;;;;;;;1.71;81.06;95873.75;5033776;28;20432;-77
2020/12/10 00:09:34;;;;;;;30.95;17.83;;;;;;;1.74;81.11;95875.22;5034369;28;20068;-76
2020/12/10 00:12:01;;;;;;;29.33;17.73;;;;;;;1.76;81.10;95870.75;5033437;28;20045;-77
2020/12/10 00:14:27;;;;;;;27.17;17.23;;;;;;;1.76;81.09;95866.41;5033481;28;20049;-77
2020/12/10 00:16:55;;;;;;;30.58;18.45;;;;;;;1.76;80.76;95865.63;5033583;28;20049;-76
2020/12/10 00:19:22;;;;;;;28.75;17.45;;;;;;;1.75;81.00;95863.97;5033388;28;20060;-77
2020/12/10 00:21:48;;;;;;;31.33;17.65;;;;;;;1.73;81.14;95868.47;5033639;28;20056;-76
2020/12/10 00:24:15;;;;;;;34.60;18.15;;;;;;;1.70;80.98;95863.63;5033356;28;20056;-78
2020/12/10 00:26:41;;;;;;;31.88;18.23;;;;;;;1.65;80.77;95862.28;5033610;28;20060;-78
2020/12/10 00:29:08;;;;;;;35.33;19.63;;;;;;;1.64;81.16;95860.69;5033355;28;20071;-77
2020/12/10 00:31:37;;;;;;;38.67;21.42;;;;;;;1.63;81.29;95871.91;5033616;28;20049;-78
2020/12/10 00:34:06;;;;;;;34.63;19.77;;;;;;;1.64;81.13;95870.16;5033105;28;20056;-78
2020/12/10 00:36:32;;;;;;;36.50;20.48;;;;;;;1.61;81.07;95868.66;5033082;28;20049;-76
2020/12/10 00:38:59;;;;;;;33.42;19.38;;;;;;;1.61;80.86;95873.00;5033295;28;20435;-78
2020/12/10 00:41:25;;;;;;;33.92;19.58;;;;;;;1.61;81.40;95868.66;5033756;28;20431;-77
2020/12/10 00:43:52;;;;;;;37.97;20.13;;;;;;;1.61;81.02;95857.56;5033504;28;20500;-77
2020/12/10 00:46:18;;;;;;;40.03;21.42;;;;;;;1.60;81.16;95872.19;5033159;28;20053;-76
2020/12/10 00:48:45;;;;;;;41.13;21.50;;;;;;;1.57;81.13;95875.03;5033564;28;20517;-77
2020/12/10 00:51:13;;;;;;;36.72;20.10;;;;;;;1.58;81.31;95871.53;5033230;28;20060;-79
2020/12/10 00:53:39;;;;;;;35.17;19.88;;;;;;;1.56;80.89;95873.44;5033343;28;20045;-77
2020/12/10 00:56:06;;;;;;;32.38;18.33;;;;;;;1.55;81.03;95876.13;5032939;28;20428;-77
2020/12/10 00:58:32;;;;;;;32.33;18.80;;;;;;;1.57;81.00;95876.81;5032986;28;20045;-78
2020/12/10 01:00:59;;;;;;;37.97;20.40;;;;;;;1.55;81.08;95869.25;5032609;28;20077;-78
2020/12/10 01:03:25;;;;;;;35.17;19.13;;;;;;;1.55;80.98;95868.44;5032807;28;20420;-77
2020/12/10 01:05:52;;;;;;;33.20;19.35;;;;;;;1.53;80.68;95872.91;5032434;28;20050;-77
2020/12/10 01:08:19;;;;;;;35.42;18.33;;;;;;;1.48;81.16;95863.06;5033005;28;20060;-77
2020/12/10 01:10:46;;;;;;;35.47;19.27;;;;;;;1.47;80.88;95860.66;5032154;28;20520;-78
2020/12/10 01:13:12;;;;;;;35.30;18.48;;;;;;;1.47;80.92;95855.50;5032581;28;20431;-77
2020/12/10 01:15:39;;;;;;;31.40;18.63;;;;;;;1.48;81.14;95850.22;5032380;28;20050;-77
2020/12/10 01:18:06;;;;;;;32.28;17.80;;;;;;;1.48;80.97;95850.22;5032586;28;20053;-76
2020/12/10 01:20:32;;;;;;;31.60;16.77;;;;;;;1.49;81.08;95849.28;5032175;28;20061;-78
2020/12/10 01:22:59;;;;;;;31.23;17.65;;;;;;;1.50;81.08;95845.72;5032418;28;20057;-77
2020/12/10 01:25:26;;;;;;;31.75;19.13;;;;;;;1.49;81.01;95839.00;5032922;28;20053;-76
2020/12/10 01:27:53;;;;;;;31.42;19.23;;;;;;;1.47;80.44;95846.03;5032428;28;20053;-76
2020/12/10 01:30:20;;;;;;;32.45;18.38;;;;;;;1.47;80.71;95847.81;5032176;28;20045;-78
2020/12/10 01:32:46;;;;;;;31.63;16.88;;;;;;;1.47;80.93;95846.03;5032276;28;20053;-77
2020/12/10 01:35:13;;;;;;;32.25;17.90;;;;;;;1.49;80.67;95849.28;5034505;28;20068;-77
2020/12/10 01:37:39;;;;;;;32.53;17.95;;;;;;;1.48;80.48;95847.63;5034594;28;20061;-76
2020/12/10 01:40:06;;;;;;;33.75;19.55;;;;;;;1.48;80.53;95841.69;5033795;28;20062;-77
2020/12/10 01:42:36;;;;;;;30.05;18.27;;;;;;;1.49;80.89;95839.00;5033187;28;20056;-77
2020/12/10 01:45:04;;;;;;;29.48;18.52;;;;;;;1.50;80.47;95835.44;5032262;28;20056;-78
2020/12/10 01:47:31;;;;;;;30.75;17.33;;;;;;;1.50;80.42;95832.06;5032278;28;20053;-78
2020/12/10 01:49:59;;;;;;;30.10;16.52;;;;;;;1.49;80.23;95818.44;5031912;28;20504;-77
2020/12/10 01:52:25;;;;;;;30.58;17.45;;;;;;;1.48;80.13;95816.00;5047067;22;20050;-80
2020/12/10 01:54:52;;;;;;;32.55;18.25;;;;;;;1.46;80.08;95815.31;5032075;28;20045;-80
2020/12/10 01:57:19;;;;;;;27.83;17.52;;;;;;;1.44;80.24;95807.75;5032942;28;20053;-80
2020/12/10 01:59:47;;;;;;;31.60;18.20;;;;;;;1.43;80.22;95809.53;5032749;28;20057;-80
2020/12/10 02:02:14;;;;;;;27.92;16.38;;;;;;;1.43;80.08;95806.16;5032558;28;20041;-79
2020/12/10 02:04:42;;;;;;;27.67;15.88;;;;;;;1.44;80.66;95797.47;5032726;28;20084;-79
2020/12/10 02:07:08;;;;;;;31.10;17.88;;;;;;;1.44;80.68;95807.75;5034709;28;20397;-80
2020/12/10 02:09:35;;;;;;;32.35;17.30;;;;;;;1.47;80.25;95807.47;5036933;28;20068;-80
2020/12/10 02:12:02;;;;;;;32.20;18.17;;;;;;;1.48;80.18;95805.72;5036665;28;20095;-79
2020/12/10 02:14:33;;;;;;;33.13;19.05;;;;;;;1.48;80.49;95810.84;5036995;28;20427;-80
2020/12/10 02:17:01;;;;;;;31.83;18.25;;;;;;;1.48;80.17;95805.72;5036721;28;20072;-79
2020/12/10 02:19:28;;;;;;;34.25;19.13;;;;;;;1.46;80.19;95808.41;5036322;28;20128;-79
2020/12/10 02:21:55;;;;;;;32.63;17.88;;;;;;;1.46;80.19;95798.13;5036264;28;20562;-80
2020/12/10 02:24:22;;;;;;;33.15;18.92;;;;;;;1.45;79.79;95796.53;5036348;28;20522;-79
2020/12/10 02:26:49;;;;;;;33.47;17.80;;;;;;;1.44;79.75;95794.91;5036745;28;20049;-79
2020/12/10 02:29:18;;;;;;;33.90;20.65;;;;;;;1.44;79.80;95794.91;5036223;28;20058;-80
2020/12/10 02:31:45;;;;;;;32.28;18.83;;;;;;;1.45;79.71;95799.09;5036286;28;20052;-79
2020/12/10 02:34:12;;;;;;;34.80;18.50;;;;;;;1.46;79.52;95793.00;5036419;28;20053;-79
2020/12/10 02:36:39;;;;;;;35.53;19.60;;;;;;;1.47;79.76;95781.78;5035648;28;20045;-79
2020/12/10 02:39:08;;;;;;;36.58;20.45;;;;;;;1.48;79.58;95775.66;5035965;28;20128;-80
2020/12/10 02:41:36;;;;;;;36.08;19.67;;;;;;;1.49;79.59;95774.72;5036241;28;20506;-80
2020/12/10 02:44:04;;;;;;;37.15;20.50;;;;;;;1.49;79.91;95771.34;5036527;28;20049;-80
2020/12/10 02:46:32;;;;;;;38.47;20.60;;;;;;;1.47;79.49;95768.13;5036110;28;20056;-80
2020/12/10 02:48:58;;;;;;;37.05;19.98;;;;;;;1.46;79.19;95751.06;5036005;28;20192;-80
2020/12/10 02:51:25;;;;;;;34.65;19.73;;;;;;;1.42;79.21;95750.56;5035848;28;20053;-79
2020/12/10 02:53:52;;;;;;;36.35;19.83;;;;;;;1.39;79.59;95743.16;5036024;28;20052;-80
2020/12/10 02:56:19;;;;;;;38.70;18.92;;;;;;;1.39;79.17;95738.81;5035680;28;20048;-79
2020/12/10 02:58:46;;;;;;;40.50;20.20;;;;;;;1.38;79.31;95741.53;5036146;28;20053;-79
2020/12/10 03:01:13;;;;;;;36.95;19.42;;;;;;;1.38;79.04;95746.69;5034793;28;20057;-80
2020/12/10 03:03:39;;;;;;;37.58;19.67;;;;;;;1.37;79.58;95743.28;5034893;28;20496;-79
2020/12/10 03:06:07;;;;;;;35.50;18.30;;;;;;;1.37;79.47;95751.00;5035053;28;20053;-79
2020/12/10 03:08:34;;;;;;;39.53;19.52;;;;;;;1.35;79.67;95734.91;5035444;28;20058;-79
2020/12/10 03:11:00;;;;;;;43.13;21.05;;;;;;;1.35;79.54;95734.91;5035502;28;20049;-80
2020/12/10 03:13:27;;;;;;;42.42;21.73;;;;;;;1.34;79.75;95732.50;5035598;28;20049;-80
2020/12/10 03:15:54;;;;;;;44.30;20.52;;;;;;;1.31;79.78;95730.22;5034999;28;20045;-80
2020/12/10 03:18:21;;;;;;;46.42;20.55;;;;;;;1.28;79.49;95728.75;5035222;28;20131;-79
2020/12/10 03:20:47;;;;;;;40.20;22.25;;;;;;;1.27;79.47;95732.28;5034828;28;20546;-79
2020/12/10 03:23:14;;;;;;;42.63;21.70;;;;;;;1.28;79.42;95727.94;5035510;28;20052;-79
2020/12/10 03:25:40;;;;;;;43.55;20.70;;;;;;;1.31;80.10;95722.50;5035240;28;20049;-79
2020/12/10 03:28:07;;;;;;;44.47;20.48;;;;;;;1.32;79.88;95713.84;5034809;28;20045;-80
2020/12/10 03:30:34;;;;;;;41.00;19.55;;;;;;;1.34;79.77;95712.75;5034154;28;20064;-79
2020/12/10 03:33:01;;;;;;;43.65;20.30;;;;;;;1.35;80.03;95708.41;5034771;28;20053;-79
2020/12/10 03:35:27;;;;;;;44.75;21.42;;;;;;;1.35;79.82;95701.50;5051182;28;20060;-79
2020/12/10 03:37:54;;;;;;;41.97;20.73;;;;;;;1.36;79.90;95694.63;5056857;28;20057;-79
2020/12/10 03:40:20;;;;;;;40.72;20.00;;;;;;;1.36;79.68;95697.19;5053531;28;20045;-79
2020/12/10 03:42:47;;;;;;;40.00;18.92;;;;;;;1.37;79.93;95701.38;5036401;28;20060;-80
2020/12/10 03:45:13;;;;;;;40.97;20.23;;;;;;;1.37;79.84;95697.03;5035291;28;20053;-79
2020/12/10 03:47:40;;;;;;;44.38;20.92;;;;;;;1.39;79.84;95700.25;5034953;28;20443;-79
2020/12/10 03:50:07;;;;;;;38.38;20.30;;;;;;;1.40;80.04;95693.34;5056430;28;20073;-79
2020/12/10 03:52:34;;;;;;;40.10;19.38;;;;;;;1.40;80.22;95693.34;5055241;28;20109;-79
2020/12/10 03:55:01;;;;;;;43.67;20.10;;;;;;;1.40;80.01;95688.22;5034978;28;20051;-80
2020/12/10 03:57:27;;;;;;;40.33;21.25;;;;;;;1.41;80.26;95692.41;5034680;28;20052;-79
2020/12/10 03:59:54;;;;;;;35.40;18.80;;;;;;;1.41;79.84;95693.22;5034800;28;20049;-80
2020/12/10 04:02:20;;;;;;;42.83;20.30;;;;;;;1.40;79.86;95693.34;5035994;28;20053;-79
2020/12/10 04:04:49;;;;;;;38.72;19.50;;;;;;;1.39;80.09;95689.97;5053322;28;20049;-79
2020/12/10 04:07:16;;;;;;;39.28;20.08;;;;;;;1.39;80.19;95689.97;5054519;28;20052;-79
2020/12/10 04:09:43;;;;;;;39.10;19.10;;;;;;;1.39;79.91;95691.75;5054395;28;20055;-79
2020/12/10 04:12:10;;;;;;;37.55;20.27;;;;;;;1.41;79.81;95694.97;5043229;28;20064;-80
2020/12/10 04:14:37;;;;;;;41.85;20.02;;;;;;;1.41;79.71;95697.56;5035457;28;20053;-79
2020/12/10 04:17:04;;;;;;;47.72;21.40;;;;;;;1.40;79.50;95685.66;5034861;28;20048;-80
2020/12/10 04:19:30;;;;;;;44.17;22.63;;;;;;;1.40;79.54;95691.63;5034066;28;20489;-79
2020/12/10 04:21:57;;;;;;;48.13;23.50;;;;;;;1.40;79.77;95685.66;5034340;28;20404;-80
2020/12/10 04:24:24;;;;;;;48.08;22.08;;;;;;;1.41;79.81;95684.69;5034602;28;20049;-79
2020/12/10 04:26:51;;;;;;;46.47;23.15;;;;;;;1.43;79.91;95687.94;5034147;28;20049;-80
2020/12/10 04:29:17;;;;;;;48.70;22.95;;;;;;;1.42;79.70;95683.75;5033180;28;20057;-80
2020/12/10 04:31:44;;;;;;;45.38;23.08;;;;;;;1.43;79.60;95685.38;5034346;28;20055;-79
2020/12/10 04:34:11;;;;;;;45.55;21.58;;;;;;;1.41;79.38;95675.22;5034208;28;20054;-79
2020/12/10 04:36:37;;;;;;;42.47;20.17;;;;;;;1.41;79.71;95677.00;5034028;28;20052;-79
2020/12/10 04:39:04;;;;;;;41.45;20.80;;;;;;;1.43;79.59;95680.22;5033634;28;20053;-80
2020/12/10 04:41:35;;;;;;;39.15;20.02;;;;;;;1.43;79.53;95675.88;5033802;28;20059;-80
2020/12/10 04:44:02;;;;;;;40.00;18.67;;;;;;;1.42;79.40;95673.47;5034062;28;20046;-79
2020/12/10 04:46:29;;;;;;;37.72;20.13;;;;;;;1.41;79.46;95682.94;5034136;28;20056;-80
2020/12/10 04:48:56;;;;;;;39.33;20.05;;;;;;;1.42;79.38;95674.28;5033772;28;20053;-79
2020/12/10 04:51:24;;;;;;;32.85;18.80;;;;;;;1.42;79.11;95679.44;5033545;28;20058;-80
2020/12/10 04:53:51;;;;;;;37.90;19.67;;;;;;;1.43;79.31;95680.22;5033636;28;20130;-79
2020/12/10 04:56:18;;;;;;;32.78;18.20;;;;;;;1.44;79.29;95681.81;5033850;28;20516;-80
2020/12/10 04:58:46;;;;;;;34.40;18.92;;;;;;;1.46;78.90;95690.19;5034388;28;20056;-78
2020/12/10 05:01:15;;;;;;;35.22;19.30;;;;;;;1.45;78.63;95678.31;5033982;28;20045;-80
2020/12/10 05:03:45;;;;;;;29.25;17.15;;;;;;;1.46;78.53;95672.22;5034181;28;20053;-81
2020/12/10 05:06:12;;;;;;;35.85;17.60;;;;;;;1.47;79.20;95671.28;5034063;28;20496;-80
2020/12/10 05:08:39;;;;;;;33.33;18.35;;;;;;;1.48;78.99;95667.72;5034429;28;20052;-79
2020/12/10 05:11:07;;;;;;;35.13;18.17;;;;;;;1.49;79.59;95671.94;5053627;28;20045;-81
2020/12/10 05:13:33;;;;;;;31.25;16.88;;;;;;;1.51;80.10;95662.31;5053179;28;20049;-81
2020/12/10 05:16:01;;;;;;;30.73;17.90;;;;;;;1.55;79.60;95666.19;5044128;28;20049;-81
2020/12/10 05:18:28;;;;;;;28.52;16.45;;;;;;;1.55;79.24;95668.78;5033777;28;20049;-79
2020/12/10 05:20:57;;;;;;;28.10;16.20;;;;;;;1.55;78.99;95666.19;5033649;28;20484;-81
2020/12/10 05:23:32;;;;;;;26.88;15.57;;;;;;;1.55;78.64;95668.78;5033694;28;20049;-81
2020/12/10 05:26:02;;;;;;;27.98;15.98;;;;;;;1.55;78.67;95663.63;5033533;28;20048;-81
2020/12/10 05:28:39;;;;;;;27.83;16.75;;;;;;;1.55;78.45;95662.81;5033475;28;20049;-80
2020/12/10 05:31:08;;;;;;;28.45;16.30;;;;;;;1.55;78.29;95665.38;5032991;28;20064;-80
2020/12/10 05:33:35;;;;;;;28.42;16.05;;;;;;;1.54;78.60;95656.06;5033220;28;20045;-81
2020/12/10 05:36:09;;;;;;;25.15;14.35;;;;;;;1.54;78.08;95659.44;5033322;28;20050;-81
2020/12/10 05:38:52;;;;;;;25.45;15.13;;;;;;;1.54;77.92;95654.28;5033397;28;20120;-81
2020/12/10 05:41:20;;;;;;;29.70;16.25;;;;;;;1.52;77.96;95653.63;5032116;28;20060;-80
2020/12/10 05:43:47;;;;;;;27.85;16.27;;;;;;;1.52;77.94;95650.25;5032987;28;20412;-80
2020/12/10 05:46:19;;;;;;;28.75;16.65;;;;;;;1.50;78.23;95642.69;5033227;28;20085;-81
2020/12/10 05:48:46;;;;;;;25.58;15.98;;;;;;;1.50;77.86;95641.88;5032885;28;20050;-81
2020/12/10 05:51:18;;;;;;;25.80;15.30;;;;;;;1.48;77.44;95647.16;5032977;28;20419;-80
2020/12/10 05:53:46;;;;;;;29.23;15.70;;;;;;;1.47;77.44;95655.84;5033268;28;20045;-80
2020/12/10 05:56:14;;;;;;;26.98;15.98;;;;;;;1.45;77.47;95655.19;5032839;28;20057;-80
2020/12/10 05:58:48;;;;;;;26.58;15.60;;;;;;;1.46;77.18;95663.69;5033159;28;20123;-80
2020/12/10 06:01:33;;;;;;;28.95;15.35;;;;;;;1.46;77.98;95658.56;5032874;28;20045;-81
2020/12/10 06:04:02;;;;;;;28.83;17.48;;;;;;;1.46;77.86;95664.50;5032924;28;20045;-81
2020/12/10 06:06:30;;;;;;;28.58;16.90;;;;;;;1.46;77.74;95661.13;5033074;28;20049;-80
2020/12/10 06:09:02;;;;;;;28.48;16.50;;;;;;;1.46;77.71;95666.28;5032911;28;20068;-79
2020/12/10 06:11:29;;;;;;;31.17;17.77;;;;;;;1.46;77.46;95667.06;5033299;28;20057;-79
2020/12/10 06:14:01;;;;;;;28.80;17.13;;;;;;;1.44;77.57;95661.28;5032993;28;20606;-78
2020/12/10 06:16:29;;;;;;;30.63;16.25;;;;;;;1.45;77.65;95660.31;5035370;28;20072;-80
2020/12/10 06:19:02;;;;;;;30.02;17.17;;;;;;;1.46;77.30;95669.63;5033240;28;20426;-81
2020/12/10 06:21:33;;;;;;;27.00;17.27;;;;;;;1.46;78.01;95661.94;5033397;28;20499;-81
2020/12/10 06:24:00;;;;;;;25.30;14.30;;;;;;;1.48;77.61;95662.59;5030555;28;20057;-80
2020/12/10 06:26:37;;;;;;;28.60;15.95;;;;;;;1.48;77.29;95661.78;5032566;28;20056;-81
2020/12/10 06:29:24;;;;;;;32.25;16.85;;;;;;;1.47;76.97;95662.75;5032406;28;20519;-79
2020/12/10 06:32:19;;;;;;;29.60;16.67;;;;;;;1.46;77.27;95672.22;5033137;28;20050;-78
2020/12/10 06:34:49;;;;;;;29.20;17.15;;;;;;;1.45;77.58;95662.91;4967602;28;20491;-80
2020/12/10 06:37:20;;;;;;;29.33;16.73;;;;;;;1.46;77.86;95661.94;5013362;28;20046;-79
2020/12/10 06:39:48;;;;;;;29.27;16.60;;;;;;;1.46;77.76;95654.22;5014577;28;20057;-81
2020/12/10 06:42:15;;;;;;;29.05;16.42;;;;;;;1.46;77.31;95649.09;5032552;28;20504;-80
2020/12/10 06:44:42;;;;;;;32.85;17.65;;;;;;;1.46;77.69;95653.41;5033110;28;20119;-81
2020/12/10 06:47:09;;;;;;;35.20;17.30;;;;;;;1.46;77.61;95654.22;5032889;28;20057;-80
2020/12/10 06:49:37;;;;;;;35.08;18.33;;;;;;;1.42;77.41;95646.03;5032665;28;20049;-80
2020/12/10 06:52:18;;;;;;;30.20;17.85;;;;;;;1.38;77.06;95652.41;5032917;28;20053;-81
2020/12/10 06:55:05;;;;;;;35.28;18.95;;;;;;;1.38;77.36;95656.75;5037507;28;20049;-80
2020/12/10 06:57:52;;;;;;;34.83;17.85;;;;;;;1.39;77.11;95658.34;5039790;28;20393;-81
2020/12/10 07:00:40;;;;;;;31.83;18.02;;;;;;;1.34;77.30;95656.22;5040452;28;20045;-81
2020/12/10 07:03:09;;;;;;;34.85;19.30;;;;;;;1.33;77.36;95658.94;5031700;28;20058;-78
2020/12/10 07:05:37;;;;;;;34.72;18.13;;;;;;;1.32;77.53;95653.00;5034222;28;20452;-78
2020/12/10 07:08:08;;;;;;;36.67;19.35;;;;;;;1.34;77.36;95655.41;5035531;28;20045;-78
2020/12/10 07:10:43;;;;;;;38.03;20.35;;;;;;;1.35;77.38;95657.03;5034948;28;20053;-78
2020/12/10 07:13:10;;;;;;;36.60;20.10;;;;;;;1.37;77.67;95660.25;5035260;28;20504;-79
2020/12/10 07:15:37;;;;;;;35.50;20.25;;;;;;;1.39;77.50;95658.34;5035278;28;20064;-79
2020/12/10 07:18:05;;;;;;;37.90;20.67;;;;;;;1.40;77.76;95660.78;5035577;28;20045;-78
2020/12/10 07:20:33;;;;;;;36.60;19.15;;;;;;;1.41;77.73;95661.56;5035234;28;20529;-79
2020/12/10 07:23:02;;;;;;;37.05;20.98;;;;;;;1.42;77.42;95663.19;5036638;28;20045;-80
2020/12/10 07:25:30;;;;;;;37.88;21.33;;;;;;;1.42;77.51;95663.19;5035618;28;20057;-79
2020/12/10 07:27:57;;;;;;;39.85;21.55;;;;;;;1.43;77.53;95664.81;5035399;28;20053;-79
2020/12/10 07:30:25;;;;;;;39.28;22.58;;;;;;;1.43;77.51;95672.50;5037423;28;20053;-78
2020/12/10 07:32:53;;;;;;;39.50;22.23;;;;;;;1.43;77.60;95664.81;5055888;28;20136;-78
2020/12/10 07:35:31;;;;;;;35.03;18.00;;;;;;;1.43;77.57;95664.81;5056331;28;20426;-78
2020/12/10 07:38:09;;;;;;;40.30;19.85;;;;;;;1.43;77.45;95660.47;5044373;28;20046;-79
2020/12/10 07:40:35;;;;;;;35.40;20.27;;;;;;;1.44;77.46;95672.38;5015546;28;20081;-80
2020/12/10 07:43:03;;;;;;;36.53;20.23;;;;;;;1.43;77.44;95664.81;5016169;28;20434;-79
2020/12/10 07:45:29;;;;;;;39.13;21.08;;;;;;;1.44;77.18;95671.56;5027433;28;20049;-79
2020/12/10 07:47:57;;;;;;;29.75;16.17;;;;;;;1.43;77.30;95663.03;5039465;28;20068;-79
2020/12/10 07:50:25;;;;;;;28.13;16.23;;;;;;;1.44;76.86;95671.56;5030101;28;20042;-80
2020/12/10 07:52:54;;;;;;;26.40;14.68;;;;;;;1.44;77.05;95666.41;5052887;22;20053;-78
2020/12/10 07:55:22;;;;;;;23.02;12.85;;;;;;;1.42;77.09;95664.00;5041166;28;20053;-77
2020/12/10 07:57:56;;;;;;;24.45;12.75;;;;;;;1.43;76.86;95663.03;5041661;28;20050;-77
2020/12/10 08:00:24;;;;;;;20.88;12.85;;;;;;;1.43;76.79;95659.66;5040611;28;20049;-80
2020/12/10 08:03:02;;;;;;;24.25;13.15;;;;;;;1.44;76.68;95658.69;5041118;28;20080;-77
2020/12/10 08:05:30;;;;;;;22.15;13.38;;;;;;;1.47;76.82;95666.13;5039821;28;20133;-77
2020/12/10 08:07:57;;;;;;;24.67;12.50;;;;;;;1.49;77.01;95659.09;5041394;28;20053;-79
2020/12/10 08:10:27;;;;;;;20.48;12.75;;;;;;;1.50;77.01;95660.69;5041033;28;20061;-77
2020/12/10 08:13:15;;;;;;;26.30;14.23;;;;;;;1.50;76.67;95663.25;5040819;28;20061;-76
2020/12/10 08:15:43;;;;;;;30.30;17.60;;;;;;;1.51;77.10;95661.47;5035740;28;20054;-77
2020/12/10 08:18:12;;;;;;;34.00;18.08;;;;;;;1.51;76.88;95659.75;5040296;28;20500;-78
2020/12/10 08:20:43;;;;;;;38.38;19.90;;;;;;;1.51;77.34;95661.47;5041272;28;20061;-80
2020/12/10 08:23:10;;;;;;;42.75;22.95;;;;;;;1.50;77.42;95662.44;5040484;28;20046;-77
2020/12/10 08:25:38;;;;;;;38.72;21.58;;;;;;;1.50;77.42;95662.44;5041202;28;20042;-77
2020/12/10 08:28:06;;;;;;;38.78;20.58;;;;;;;1.50;77.74;95658.13;5040377;28;20106;-78
2020/12/10 08:30:33;;;;;;;35.22;19.00;;;;;;;1.53;77.49;95662.97;5040830;28;20041;-78
2020/12/10 08:33:00;;;;;;;41.53;21.00;;;;;;;1.53;77.45;95660.41;5040127;28;20049;-78
2020/12/10 08:35:27;;;;;;;37.70;20.63;;;;;;;1.54;77.55;95651.72;5040796;28;20053;-79
2020/12/10 08:37:54;;;;;;;37.58;19.73;;;;;;;1.55;77.76;95643.06;5040311;28;20084;-78
2020/12/10 08:40:25;;;;;;;38.50;19.40;;;;;;;1.58;78.21;95653.03;5039790;28;20050;-78
2020/12/10 08:42:54;;;;;;;33.92;18.98;;;;;;;1.60;77.94;95661.41;5039234;28;20049;-77
2020/12/10 08:45:31;;;;;;;36.53;19.48;;;;;;;1.62;78.23;95649.22;5039673;28;20056;-78
2020/12/10 08:47:59;;;;;;;37.50;18.98;;;;;;;1.64;77.69;95649.88;5040162;28;20064;-78
2020/12/10 08:50:29;;;;;;;32.70;19.00;;;;;;;1.64;77.47;95655.03;5044178;28;20048;-80
2020/12/10 08:53:05;;;;;;;33.58;18.05;;;;;;;1.62;77.34;95659.50;5061800;28;20084;-77
2020/12/10 08:55:42;;;;;;;35.33;18.75;;;;;;;1.64;78.09;95656.78;5059697;28;20049;-79
2020/12/10 08:58:14;;;;;;;35.25;17.02;;;;;;;1.67;78.14;95658.25;5060090;28;20053;-79
2020/12/10 09:00:41;;;;;;;27.10;15.10;;;;;;;1.68;77.96;95658.09;5056039;28;20038;-80
2020/12/10 09:03:08;;;;;;;33.95;16.70;;;;;;;1.69;78.05;95658.91;5044661;28;20504;-81
2020/12/10 09:05:34;;;;;;;37.95;21.45;;;;;;;1.70;77.53;95656.16;5044190;28;20558;-79
2020/12/10 09:08:02;;;;;;;35.22;19.10;;;;;;;1.70;77.52;95657.94;5046235;28;20112;-79
2020/12/10 09:10:29;;;;;;;34.35;17.27;;;;;;;1.68;77.69;95662.44;5046778;28;20052;-79
2020/12/10 09:12:57;;;;;;;33.25;17.88;;;;;;;1.69;78.00;95658.91;5047449;28;20045;-80
2020/12/10 09:15:40;;;;;;;34.70;19.17;;;;;;;1.70;77.32;95651.03;5045036;28;20049;-79
2020/12/10 09:18:06;;;;;;;35.17;18.50;;;;;;;1.71;77.69;95651.84;5045086;28;20677;-82
2020/12/10 09:20:33;;;;;;;42.83;20.23;;;;;;;1.69;77.75;95646.06;5044979;28;20049;-83
2020/12/10 09:22:59;;;;;;;46.70;20.52;;;;;;;1.68;78.04;95647.00;5046208;28;20053;-78
2020/12/10 09:25:26;;;;;;;38.72;19.33;;;;;;;1.69;78.09;95643.50;5045804;28;20053;-79
2020/12/10 09:27:54;;;;;;;35.75;18.45;;;;;;;1.73;78.01;95644.78;5046278;28;20087;-79
2020/12/10 09:30:20;;;;;;;37.40;17.58;;;;;;;1.76;78.25;95639.34;5043498;28;20076;-82
2020/12/10 09:32:48;;;;;;;33.08;17.35;;;;;;;1.78;78.16;95640.00;5043446;28;20078;-79
2020/12/10 09:35:15;;;;;;;34.38;16.90;;;;;;;1.80;78.09;95635.53;5043981;28;20117;-80
2020/12/10 09:37:42;;;;;;;56.08;28.27;;;;;;;1.84;78.24;95641.97;5043109;28;20049;-80
2020/12/10 09:40:11;;;;;;;46.20;23.45;;;;;;;1.87;77.94;95640.88;5041745;28;20060;-83
2020/12/10 09:42:38;;;;;;;34.83;17.83;;;;;;;1.87;77.62;95631.38;5041997;28;20049;-80
2020/12/10 09:45:05;;;;;;;36.35;17.23;;;;;;;1.89;78.07;95633.81;5042571;28;20456;-79
2020/12/10 09:47:33;;;;;;;30.83;16.38;;;;;;;1.90;78.20;95638.78;5041403;28;20042;-76
2020/12/10 09:50:01;;;;;;;37.67;18.65;;;;;;;1.93;77.75;95635.94;5039752;28;20057;-78
2020/12/10 09:52:29;;;;;;;32.50;16.25;;;;;;;1.96;77.63;95629.66;5041058;28;20401;-80
2020/12/10 09:55:03;;;;;;;33.45;17.48;;;;;;;1.98;77.90;95636.28;5041460;28;20045;-80
2020/12/10 09:57:30;;;;;;;36.15;17.35;;;;;;;2.01;77.90;95625.69;5041522;28;20056;-80
2020/12/10 09:59:58;;;;;;;36.47;17.73;;;;;;;2.05;77.52;95631.31;5040912;28;20113;-79
2020/12/10 10:02:25;;;;;;;34.42;17.15;;;;;;;2.06;77.92;95626.03;5039255;28;20052;-80
2020/12/10 10:04:52;;;;;;;33.70;16.05;;;;;;;2.09;77.76;95626.69;5040039;28;20419;-79
2020/12/10 10:07:20;;;;;;;33.88;16.90;;;;;;;2.08;77.26;95622.47;5039653;28;20559;-81
2020/12/10 10:09:47;;;;;;;32.17;16.42;;;;;;;2.08;77.60;95617.34;5039480;28;20053;-79
2020/12/10 10:12:14;;;;;;;29.85;15.15;;;;;;;2.10;77.92;95626.53;5039673;28;20053;-80
2020/12/10 10:14:41;;;;;;;32.60;16.75;;;;;;;2.13;77.82;95623.66;5040553;28;20053;-80
2020/12/10 10:17:09;;;;;;;33.35;16.00;;;;;;;2.17;77.97;95613.88;5040464;28;20049;-80
2020/12/10 10:19:36;;;;;;;36.67;17.67;;;;;;;2.21;78.04;95617.75;5040022;28;20103;-79
2020/12/10 10:22:03;;;;;;;32.38;16.27;;;;;;;2.22;77.51;95604.72;5041026;28;20049;-77
2020/12/10 10:24:31;;;;;;;33.70;16.73;;;;;;;2.24;77.40;95610.50;5038448;28;20057;-78
2020/12/10 10:26:58;;;;;;;37.90;17.85;;;;;;;2.25;76.87;95607.00;5038271;28;20081;-77
2020/12/10 10:29:25;;;;;;;34.92;16.23;;;;;;;2.26;77.43;95608.59;5041904;28;20046;-77
2020/12/10 10:31:52;;;;;;;30.52;17.23;;;;;;;2.28;77.11;95607.66;5044841;28;20053;-78
2020/12/10 10:34:20;;;;;;;38.15;19.05;;;;;;;2.29;76.89;95604.91;5045027;28;20072;-78
2020/12/10 10:36:49;;;;;;;34.72;15.98;;;;;;;2.27;76.44;95596.53;5045536;28;20064;-78
2020/12/10 10:39:15;;;;;;;35.40;16.35;;;;;;;2.24;76.73;95602.00;5043463;28;20431;-77
2020/12/10 10:41:45;;;;;;;33.50;17.77;;;;;;;2.23;77.01;95597.78;5040620;28;20056;-78
2020/12/10 10:44:11;;;;;;;34.58;18.15;;;;;;;2.26;77.72;95600.88;5039521;28;20510;-77
2020/12/10 10:46:38;;;;;;;30.35;15.98;;;;;;;2.28;77.69;95598.16;5040815;28;20329;-77
2020/12/10 10:49:05;;;;;;;31.73;16.23;;;;;;;2.31;77.21;95597.84;5040482;28;20112;-77
2020/12/10 10:51:32;;;;;;;37.35;17.40;;;;;;;2.33;77.12;95595.91;5040317;28;20057;-77
2020/12/10 10:53:59;;;;;;;33.92;16.33;;;;;;;2.34;77.19;95594.13;5041091;28;20060;-76
2020/12/10 10:56:26;;;;;;;30.65;16.98;;;;;;;2.35;77.23;95585.47;5040255;28;20049;-78
2020/12/10 10:58:55;;;;;;;35.33;17.35;;;;;;;2.37;77.29;95586.13;5040281;28;20099;-79
2020/12/10 11:01:26;;;;;;;36.92;16.67;;;;;;;2.37;77.37;95586.13;5040060;28;20049;-78
2020/12/10 11:03:53;;;;;;;40.20;18.35;;;;;;;2.37;77.15;95586.94;5040759;28;20049;-79
2020/12/10 11:06:20;;;;;;;38.47;17.45;;;;;;;2.37;76.87;95586.94;5039829;28;20491;-78
2020/12/10 11:08:46;;;;;;;32.83;17.63;;;;;;;2.36;76.79;95587.06;5040605;28;20053;-77
2020/12/10 11:11:17;;;;;;;37.15;16.60;;;;;;;2.35;76.63;95594.00;5042296;28;20053;-79
2020/12/10 11:13:44;;;;;;;28.35;15.65;;;;;;;2.35;76.44;95586.28;5043990;28;20113;-78
2020/12/10 11:16:11;;;;;;;25.50;15.35;;;;;;;2.34;76.70;95589.81;5047359;28;20065;-79
2020/12/10 11:18:39;;;;;;;25.55;14.10;;;;;;;2.36;77.00;95592.22;5041636;28;20050;-77
2020/12/10 11:21:06;;;;;;;22.73;13.75;;;;;;;2.35;76.78;95594.00;5041147;28;20046;-80
2020/12/10 11:23:33;;;;;;;26.52;15.00;;;;;;;2.35;77.04;95591.41;5043056;28;20298;-79
2020/12/10 11:26:01;;;;;;;26.58;14.25;;;;;;;2.35;77.36;95588.03;5043764;28;20045;-78
2020/12/10 11:28:28;;;;;;;23.90;12.45;;;;;;;2.37;76.89;95584.34;5039933;28;20175;-78
2020/12/10 11:30:55;;;;;;;23.00;13.93;;;;;;;2.37;76.66;95586.13;5040064;28;20053;-78